createdAt,value
2022-07-25T00:02:21.783Z,99769.94
2022-07-25T00:04:50.174Z,99783.09
2022-07-25T00:07:18.354Z,99806.13
2022-07-25T00:09:46.386Z,99807.75
2022-07-25T00:12:14.772Z,99800.53
2022-07-25T00:14:44.145Z,99802.66
2022-07-25T00:17:12.229Z,99789.53
2022-07-25T00:19:40.247Z,99789.53
2022-07-25T00:22:08.287Z,99779.97
2022-07-25T00:24:36.289Z,99768.75
2022-07-25T00:27:04.339Z,99759.91
2022-07-25T00:29:32.349Z,99752.22
2022-07-25T00:32:01.774Z,99748.91
2022-07-25T00:34:29.774Z,99752.72
2022-07-25T00:36:57.781Z,99743.41
2022-07-25T00:39:25.774Z,99737.34
2022-07-25T00:41:53.754Z,99741.75
2022-07-25T00:44:25.767Z,99740.13
2022-07-25T00:46:53.896Z,99741.78
2022-07-25T00:49:23.422Z,99738.56
2022-07-25T00:51:51.545Z,99733.31
2022-07-25T00:54:19.545Z,99746.19
2022-07-25T00:56:47.592Z,99747.56
2022-07-25T00:59:16.709Z,99740.41
2022-07-25T01:01:45.729Z,99737.34
2022-07-25T01:04:13.825Z,99737.88
2022-07-25T01:06:43.202Z,99737.31
2022-07-25T01:09:11.198Z,99745.25
2022-07-25T01:11:39.376Z,99740.06
2022-07-25T01:14:07.857Z,99735.59
2022-07-25T01:16:36.065Z,99735.00
2022-07-25T01:19:04.133Z,99721.31
2022-07-25T01:21:33.522Z,99725.09
2022-07-25T01:24:01.563Z,99717.13
2022-07-25T01:26:30.583Z,99721.28
2022-07-25T01:28:58.643Z,99722.94
2022-07-25T01:31:26.733Z,99726.69
2022-07-25T01:33:54.799Z,99721.75
2022-07-25T01:36:22.834Z,99725.56
2022-07-25T01:38:54.189Z,99724.97
2022-07-25T01:41:22.897Z,99717.56
2022-07-25T01:43:50.990Z,99712.38
2022-07-25T01:46:19.130Z,99721.66
2022-07-25T01:48:47.350Z,99712.22
2022-07-25T01:51:15.409Z,99708.41
2022-07-25T01:53:48.504Z,99711.59
2022-07-25T01:56:18.078Z,99707.28
2022-07-25T01:58:49.920Z,99702.91
2022-07-25T02:01:17.993Z,99707.56
2022-07-25T02:03:49.758Z,99701.25
2022-07-25T02:06:18.578Z,99703.25
2022-07-25T02:08:46.576Z,99693.13
2022-07-25T02:11:14.568Z,99703.25
2022-07-25T02:13:44.714Z,99702.09
2022-07-25T02:16:12.883Z,99705.09
2022-07-25T02:18:40.959Z,99701.78
2022-07-25T02:21:14.408Z,99700.13
2022-07-25T02:23:43.263Z,99697.97
2022-07-25T02:26:11.595Z,99708.94
2022-07-25T02:28:39.648Z,99715.50
2022-07-25T02:31:09.408Z,99717.06
2022-07-25T02:33:37.860Z,99715.41
2022-07-25T02:36:06.132Z,99708.28
2022-07-25T02:38:34.144Z,99714.84
2022-07-25T02:41:02.186Z,99702.50
2022-07-25T02:43:30.195Z,99723.38
2022-07-25T02:45:58.262Z,99713.75
2022-07-25T02:48:27.722Z,99712.63
2022-07-25T02:50:55.750Z,99706.00
2022-07-25T02:53:46.685Z,99708.72
2022-07-25T02:56:11.757Z,99711.97
2022-07-25T02:58:42.161Z,99712.53
2022-07-25T03:01:10.230Z,99709.81
2022-07-25T03:03:39.711Z,99715.28
2022-07-25T03:06:07.963Z,99715.28
2022-07-25T03:08:36.024Z,99718.03
2022-07-25T03:11:04.331Z,99714.19
2022-07-25T03:13:33.231Z,99718.84
2022-07-25T03:16:01.461Z,99716.34
2022-07-25T03:18:29.567Z,99724.06
2022-07-25T03:20:58.947Z,99722.50
2022-07-25T03:23:27.432Z,99717.06
2022-07-25T03:25:55.519Z,99714.91
2022-07-25T03:28:24.711Z,99726.50
2022-07-25T03:30:52.919Z,99716.19
2022-07-25T03:33:20.978Z,99705.88
2022-07-25T03:35:49.074Z,99721.28
2022-07-25T03:38:18.745Z,99725.72
2022-07-25T03:40:46.769Z,99728.56
2022-07-25T03:43:14.811Z,99731.47
2022-07-25T03:45:42.896Z,99731.59
2022-07-25T03:48:10.932Z,99728.09
2022-07-25T03:50:38.933Z,99732.34
2022-07-25T03:53:06.965Z,99732.19
2022-07-25T03:55:40.541Z,99738.09
2022-07-25T03:58:08.521Z,99734.41
2022-07-25T04:00:36.561Z,99713.19
2022-07-25T04:03:05.071Z,99705.59
2022-07-25T04:05:33.085Z,99710.69
2022-07-25T04:08:01.124Z,99710.47
2022-07-25T04:10:29.235Z,99700.31
2022-07-25T04:12:58.604Z,99698.09
2022-07-25T04:15:26.779Z,99709.66
2022-07-25T04:17:55.176Z,99705.00
2022-07-25T04:20:23.447Z,99684.91
2022-07-25T04:22:53.143Z,99680.50
2022-07-25T04:25:21.155Z,99684.06
2022-07-25T04:27:49.160Z,99692.63
2022-07-25T04:30:23.851Z,99706.63
2022-07-25T04:32:53.126Z,99703.63
2022-07-25T04:35:21.465Z,99687.06
2022-07-25T04:37:49.511Z,99691.94
2022-07-25T04:40:17.526Z,99710.66
2022-07-25T04:42:45.549Z,99717.81
2022-07-25T04:45:13.911Z,99719.38
2022-07-25T04:47:47.244Z,99722.16
2022-07-25T04:50:15.276Z,99724.91
2022-07-25T04:52:43.302Z,99719.34
2022-07-25T04:55:11.500Z,99732.53
2022-07-25T04:57:39.934Z,99719.34
2022-07-25T05:00:09.368Z,99718.28
2022-07-25T05:02:37.623Z,99727.09
2022-07-25T05:05:08.579Z,99724.94
2022-07-25T05:07:49.365Z,99729.38
2022-07-25T05:10:17.392Z,99718.56
2022-07-25T05:12:45.383Z,99727.06
2022-07-25T05:15:13.660Z,99725.94
2022-07-25T05:17:41.667Z,99734.78
2022-07-25T05:20:12.383Z,99731.38
2022-07-25T05:22:40.395Z,99723.59
2022-07-25T05:25:09.864Z,99735.56
2022-07-25T05:27:37.955Z,99735.72
2022-07-25T05:30:07.022Z,99731.81
2022-07-25T05:32:35.018Z,99726.28
2022-07-25T05:35:03.037Z,99726.22
2022-07-25T05:37:32.449Z,99722.16
2022-07-25T05:40:00.453Z,99723.44
2022-07-25T05:42:28.766Z,99722.88
2022-07-25T05:44:56.768Z,99723.41
2022-07-25T05:47:25.175Z,99717.44
2022-07-25T05:49:53.209Z,99713.97
2022-07-25T05:52:21.214Z,99725.44
2022-07-25T05:54:50.723Z,99724.81
2022-07-25T05:57:18.764Z,99721.47
2022-07-25T05:59:46.789Z,99715.78
2022-07-25T06:02:14.916Z,99705.19
2022-07-25T06:04:43.015Z,99711.06
2022-07-25T06:07:12.016Z,99702.88
2022-07-25T06:09:44.990Z,99705.78
2022-07-25T06:12:14.980Z,99716.28
2022-07-25T06:14:43.686Z,99715.00
2022-07-25T06:17:11.755Z,99712.88
2022-07-25T06:19:39.762Z,99722.00
2022-07-25T06:22:09.409Z,99725.31
2022-07-25T06:24:37.454Z,99723.25
2022-07-25T06:27:05.641Z,99726.53
2022-07-25T06:29:35.045Z,99726.13
2022-07-25T06:32:03.095Z,99730.13
2022-07-25T06:34:31.100Z,99724.75
2022-07-25T06:36:59.163Z,99730.56
2022-07-25T06:39:28.194Z,99738.78
2022-07-25T06:41:56.228Z,99729.13
2022-07-25T06:44:24.248Z,99736.13
2022-07-25T06:46:53.702Z,99737.50
2022-07-25T06:49:21.832Z,99734.34
2022-07-25T06:51:49.835Z,99743.28
2022-07-25T06:54:18.673Z,99745.31
2022-07-25T06:56:46.761Z,99744.22
2022-07-25T06:59:14.756Z,99744.88
2022-07-25T07:01:42.761Z,99749.22
2022-07-25T07:04:12.127Z,99744.84
2022-07-25T07:06:40.121Z,99740.16
2022-07-25T07:09:08.128Z,99750.63
2022-07-25T07:11:36.193Z,99736.16
2022-07-25T07:14:05.016Z,99740.00
2022-07-25T07:16:33.410Z,99744.75
2022-07-25T07:19:01.785Z,99746.84
2022-07-25T07:21:31.196Z,99740.50
2022-07-25T07:23:59.218Z,99748.38
2022-07-25T07:26:27.251Z,99746.34
2022-07-25T07:28:56.100Z,99738.28
2022-07-25T07:31:24.253Z,99741.28
2022-07-25T07:33:52.309Z,99736.19
2022-07-25T07:36:20.634Z,99743.59
2022-07-25T07:38:50.042Z,99741.84
2022-07-25T07:41:18.055Z,99747.41
2022-07-25T07:43:46.086Z,99743.94
2022-07-25T07:46:14.141Z,99739.25
2022-07-25T07:48:42.230Z,99738.22
2022-07-25T07:51:10.297Z,99737.22
2022-07-25T07:53:55.765Z,99737.59
2022-07-25T07:56:25.178Z,99730.16
2022-07-25T07:58:53.185Z,99735.94
2022-07-25T08:01:21.229Z,99726.16
2022-07-25T08:03:49.346Z,99740.38
2022-07-25T08:06:17.355Z,99736.47
2022-07-25T08:08:45.383Z,99736.41
2022-07-25T08:11:13.397Z,99726.34
2022-07-25T08:13:42.764Z,99729.78
2022-07-25T08:16:11.972Z,99730.38
2022-07-25T08:18:40.057Z,99728.09
2022-07-25T08:21:08.238Z,99729.41
2022-07-25T08:23:38.830Z,99725.44
2022-07-25T08:26:07.634Z,99731.06
2022-07-25T08:28:35.641Z,99741.03
2022-07-25T08:31:05.062Z,99731.31
2022-07-25T08:33:33.132Z,99733.00
2022-07-25T08:36:01.162Z,99731.22
2022-07-25T08:38:29.563Z,99735.19
2022-07-25T08:40:57.808Z,99723.28
2022-07-25T08:43:25.811Z,99724.66
2022-07-25T08:45:55.065Z,99725.44
2022-07-25T08:48:25.480Z,99721.38
2022-07-25T08:50:53.887Z,99718.59
2022-07-25T08:53:37.732Z,99721.53
2022-07-25T08:56:12.257Z,99709.16
2022-07-25T08:58:41.832Z,99717.00
2022-07-25T09:01:12.607Z,99715.19
2022-07-25T09:03:43.094Z,99717.66
2022-07-25T09:06:19.029Z,99716.22
2022-07-25T09:08:54.593Z,99710.44
2022-07-25T09:11:29.847Z,99710.13
2022-07-25T09:14:05.723Z,99705.06
2022-07-25T09:16:35.978Z,99712.41
2022-07-25T09:19:11.900Z,99706.19
2022-07-25T09:21:41.029Z,99703.22
2022-07-25T09:24:10.856Z,99694.75
2022-07-25T09:26:45.939Z,99701.75
2022-07-25T09:29:18.562Z,99695.63
2022-07-25T09:31:46.738Z,99698.91
2022-07-25T09:34:19.432Z,99694.00
2022-07-25T09:36:55.039Z,99698.47
2022-07-25T09:39:23.103Z,99696.97
2022-07-25T09:41:51.089Z,99702.19
2022-07-25T09:44:19.217Z,99696.97
2022-07-25T09:46:47.638Z,99697.31
2022-07-25T09:49:17.161Z,99702.16
2022-07-25T09:51:45.531Z,99693.16
2022-07-25T09:54:13.566Z,99690.34
2022-07-25T09:56:41.628Z,99692.66
2022-07-25T09:59:09.823Z,99696.19
2022-07-25T10:01:38.976Z,99685.84
2022-07-25T10:04:11.346Z,99692.31
2022-07-25T10:06:41.372Z,99688.63
2022-07-25T10:09:12.440Z,99679.47
2022-07-25T10:11:40.538Z,99678.97
2022-07-25T10:14:11.433Z,99681.44
2022-07-25T10:16:46.625Z,99675.69
2022-07-25T10:19:14.717Z,99677.47
2022-07-25T10:21:44.091Z,99672.97
2022-07-25T10:24:12.943Z,99668.75
2022-07-25T10:26:41.388Z,99670.25
2022-07-25T10:29:09.665Z,99669.66
2022-07-25T10:31:39.762Z,99659.94
2022-07-25T10:34:08.592Z,99653.50
2022-07-25T10:36:45.270Z,99650.72
2022-07-25T10:39:14.139Z,99652.03
2022-07-25T10:41:42.862Z,99653.25
2022-07-25T10:44:13.155Z,99658.03
2022-07-25T10:46:41.273Z,99650.81
2022-07-25T10:49:09.761Z,99643.03
2022-07-25T10:51:41.962Z,99642.13
2022-07-25T10:54:15.468Z,99645.22
2022-07-25T10:56:52.881Z,99649.81
2022-07-25T10:59:28.211Z,99654.13
2022-07-25T11:01:56.262Z,99645.50
2022-07-25T11:04:24.285Z,99642.97
2022-07-25T11:06:52.338Z,99641.03
2022-07-25T11:09:26.949Z,99642.53
2022-07-25T11:11:56.412Z,99632.88
2022-07-25T11:14:25.463Z,99638.59
2022-07-25T11:16:55.041Z,99634.97
2022-07-25T11:19:24.584Z,99641.09
2022-07-25T11:21:53.730Z,99620.31
2022-07-25T11:24:23.362Z,99625.91
2022-07-25T11:26:52.496Z,99626.41
2022-07-25T11:29:21.589Z,99617.19
2022-07-25T11:31:54.300Z,99611.97
2022-07-25T11:34:24.437Z,99611.16
2022-07-25T11:36:55.287Z,99608.19
2022-07-25T11:39:26.096Z,99609.19
2022-07-25T11:42:04.353Z,99609.97
2022-07-25T11:44:36.243Z,99602.31
2022-07-25T11:47:04.528Z,99603.78
2022-07-25T11:49:32.542Z,99605.72
2022-07-25T11:52:00.578Z,99597.72
2022-07-25T11:54:29.976Z,99592.09
2022-07-25T11:56:58.042Z,99598.75
2022-07-25T11:59:26.503Z,99581.94
2022-07-25T12:01:54.604Z,99574.53
2022-07-25T12:04:22.651Z,99584.41
2022-07-25T12:06:51.979Z,99574.38
2022-07-25T12:09:20.881Z,99580.09
2022-07-25T12:11:50.386Z,99580.06
2022-07-25T12:14:18.395Z,99579.28
2022-07-25T12:16:46.501Z,99578.13
2022-07-25T12:19:21.112Z,99571.78
2022-07-25T12:21:49.135Z,99569.75
2022-07-25T12:24:17.146Z,99567.72
2022-07-25T12:26:45.163Z,99563.72
2022-07-25T12:29:14.574Z,99556.88
2022-07-25T12:31:42.554Z,99547.88
2022-07-25T12:34:10.588Z,99554.59
2022-07-25T12:36:44.109Z,99546.25
2022-07-25T12:39:12.398Z,99554.94
2022-07-25T12:41:42.589Z,99544.53
2022-07-25T12:44:11.008Z,99541.81
2022-07-25T12:46:45.831Z,99536.69
2022-07-25T12:49:17.344Z,99539.28
2022-07-25T12:51:45.459Z,99534.22
2022-07-25T12:54:16.268Z,99537.09
2022-07-25T12:56:46.780Z,99533.03
2022-07-25T12:59:14.788Z,99535.41
2022-07-25T13:01:44.213Z,99530.38
2022-07-25T13:04:12.313Z,99530.91
2022-07-25T13:06:40.337Z,99528.16
2022-07-25T13:09:08.588Z,99527.41
2022-07-25T13:11:36.979Z,99525.25
2022-07-25T13:14:05.000Z,99515.44
2022-07-25T13:16:34.568Z,99518.59
2022-07-25T13:19:04.456Z,99511.34
2022-07-25T13:21:32.811Z,99507.38
2022-07-25T13:24:00.841Z,99503.81
2022-07-25T13:26:28.861Z,99509.22
2022-07-25T13:28:59.999Z,99500.19
2022-07-25T13:31:28.183Z,99499.59
2022-07-25T13:33:56.406Z,99491.88
2022-07-25T13:36:25.814Z,99492.09
2022-07-25T13:38:53.788Z,99497.28
2022-07-25T13:41:21.809Z,99497.25
2022-07-25T13:43:49.808Z,99496.97
2022-07-25T13:46:17.955Z,99489.44
2022-07-25T13:48:46.078Z,99497.41
2022-07-25T13:51:14.645Z,99489.03
2022-07-25T13:53:44.963Z,99479.41
2022-07-25T13:56:13.291Z,99472.25
2022-07-25T13:58:41.707Z,99475.13
2022-07-25T14:01:09.969Z,99474.09
2022-07-25T14:03:38.142Z,99467.00
2022-07-25T14:06:06.765Z,99463.69
2022-07-25T14:08:34.765Z,99461.59
2022-07-25T14:11:05.664Z,99462.81
2022-07-25T14:13:33.807Z,99464.47
2022-07-25T14:16:01.839Z,99456.81
2022-07-25T14:18:31.329Z,99459.25
2022-07-25T14:20:59.390Z,99457.00
2022-07-25T14:23:30.056Z,99459.09
2022-07-25T14:25:59.056Z,99454.44
2022-07-25T14:28:28.441Z,99450.69
2022-07-25T14:30:56.676Z,99459.50
2022-07-25T14:33:24.821Z,99446.09
2022-07-25T14:35:52.824Z,99444.88
2022-07-25T14:38:20.900Z,99441.63
2022-07-25T14:40:49.837Z,99450.59
2022-07-25T14:43:18.104Z,99446.06
2022-07-25T14:45:47.533Z,99445.22
2022-07-25T14:48:15.547Z,99444.91
2022-07-25T14:50:43.590Z,99433.34
2022-07-25T14:53:12.800Z,99437.00
2022-07-25T14:55:40.828Z,99427.53
2022-07-25T14:58:08.852Z,99433.09
2022-07-25T15:00:41.070Z,99427.19
2022-07-25T15:03:10.575Z,99420.66
2022-07-25T15:05:38.674Z,99416.91
2022-07-25T15:08:07.429Z,99418.72
2022-07-25T15:10:35.482Z,99421.34
2022-07-25T15:13:28.617Z,99422.97
2022-07-25T15:15:51.561Z,99410.06
2022-07-25T15:18:20.971Z,99415.81
2022-07-25T15:20:48.975Z,99405.16
2022-07-25T15:23:16.979Z,99400.28
2022-07-25T15:26:01.127Z,99390.97
2022-07-25T15:28:29.735Z,99395.88
2022-07-25T15:30:57.888Z,99401.09
2022-07-25T15:33:27.348Z,99395.19
2022-07-25T15:35:55.517Z,99394.38
2022-07-25T15:38:23.492Z,99389.00
2022-07-25T15:40:51.540Z,99386.56
2022-07-25T15:43:19.549Z,99396.22
2022-07-25T15:45:47.595Z,99391.63
2022-07-25T15:48:16.241Z,99396.19
2022-07-25T15:50:46.786Z,99402.25
2022-07-25T15:53:14.818Z,99400.72
2022-07-25T15:55:42.920Z,99398.78
2022-07-25T15:58:11.386Z,99396.13
2022-07-25T16:00:39.728Z,99384.00
2022-07-25T16:03:07.882Z,99392.19
2022-07-25T16:05:35.934Z,99395.09
2022-07-25T16:08:05.874Z,99384.66
2022-07-25T16:10:34.051Z,99386.44
2022-07-25T16:13:02.076Z,99385.75
2022-07-25T16:15:30.077Z,99385.84
2022-07-25T16:18:02.619Z,99384.03
2022-07-25T16:20:31.494Z,99392.03
2022-07-25T16:22:59.767Z,99379.59
2022-07-25T16:25:29.665Z,99390.69
2022-07-25T16:27:58.911Z,99383.50
2022-07-25T16:30:27.538Z,99384.97
2022-07-25T16:32:55.586Z,99378.22
2022-07-25T16:35:23.922Z,99389.97
2022-07-25T16:37:51.945Z,99383.69
2022-07-25T16:40:19.933Z,99385.59
2022-07-25T16:42:51.991Z,99386.22
2022-07-25T16:45:19.998Z,99383.81
2022-07-25T16:47:48.013Z,99381.69
2022-07-25T16:50:16.064Z,99393.09
2022-07-25T16:52:44.149Z,99384.09
2022-07-25T16:55:12.166Z,99391.09
2022-07-25T16:57:40.153Z,99376.50
2022-07-25T17:00:10.727Z,99380.03
2022-07-25T17:02:39.791Z,99376.38
2022-07-25T17:05:08.303Z,99377.94
2022-07-25T17:07:36.345Z,99385.03
2022-07-25T17:10:05.172Z,99384.03
2022-07-25T17:12:33.237Z,99390.22
2022-07-25T17:15:01.252Z,99385.06
2022-07-25T17:17:31.777Z,99385.50
2022-07-25T17:20:00.308Z,99384.00
2022-07-25T17:22:28.482Z,99386.34
2022-07-25T17:24:56.480Z,99377.13
2022-07-25T17:27:24.521Z,99382.66
2022-07-25T17:29:52.549Z,99385.31
2022-07-25T17:32:20.567Z,99384.09
2022-07-25T17:34:49.943Z,99385.97
2022-07-25T17:37:18.274Z,99390.56
2022-07-25T17:39:46.274Z,99397.44
2022-07-25T17:42:20.650Z,99391.09
2022-07-25T17:44:48.846Z,99389.06
2022-07-25T17:47:16.896Z,99388.75
2022-07-25T17:49:44.939Z,99392.00
2022-07-25T17:52:15.661Z,99397.47
2022-07-25T17:54:43.645Z,99398.25
2022-07-25T17:57:11.656Z,99399.81
2022-07-25T17:59:39.629Z,99403.03
2022-07-25T18:02:07.674Z,99403.56
2022-07-25T18:04:36.929Z,99397.94
2022-07-25T18:07:05.686Z,99409.09
2022-07-25T18:09:35.065Z,99408.66
2022-07-25T18:12:03.126Z,99409.31
2022-07-25T18:14:31.318Z,99404.22
2022-07-25T18:16:59.338Z,99406.81
2022-07-25T18:19:27.343Z,99411.03
2022-07-25T18:21:55.386Z,99421.91
2022-07-25T18:24:27.441Z,99420.28
2022-07-25T18:26:58.713Z,99419.78
2022-07-25T18:29:26.748Z,99421.78
2022-07-25T18:31:54.757Z,99426.00
2022-07-25T18:34:22.759Z,99420.00
2022-07-25T18:36:50.771Z,99428.88
2022-07-25T18:39:18.837Z,99432.84
2022-07-25T18:41:46.821Z,99430.72
2022-07-25T18:44:16.236Z,99436.31
2022-07-25T18:46:45.661Z,99437.47
2022-07-25T18:49:14.084Z,99441.03
2022-07-25T18:51:42.164Z,99438.63
2022-07-25T18:54:10.610Z,99433.19
2022-07-25T18:56:38.947Z,99436.53
2022-07-25T18:59:07.741Z,99437.16
2022-07-25T19:01:38.632Z,99447.06
2022-07-25T19:04:07.222Z,99439.13
2022-07-25T19:06:35.416Z,99443.88
2022-07-25T19:09:03.602Z,99442.78
2022-07-25T19:11:33.338Z,99442.50
2022-07-25T19:14:01.378Z,99440.06
2022-07-25T19:16:29.376Z,99449.97
2022-07-25T19:18:58.778Z,99443.66
2022-07-25T19:21:26.780Z,99449.97
2022-07-25T19:23:54.760Z,99451.09
2022-07-25T19:26:23.364Z,99458.28
2022-07-25T19:28:51.569Z,99452.50
2022-07-25T19:31:19.616Z,99445.91
2022-07-25T19:33:47.642Z,99446.72
2022-07-25T19:36:17.053Z,99455.56
2022-07-25T19:38:45.082Z,99456.09
2022-07-25T19:41:13.074Z,99446.78
2022-07-25T19:43:41.073Z,99459.44
2022-07-25T19:46:09.200Z,99453.66
2022-07-25T19:48:37.276Z,99453.94
2022-07-25T19:51:05.587Z,99454.75
2022-07-25T19:53:34.958Z,99457.25
2022-07-25T19:56:02.961Z,99452.31
2022-07-25T19:58:34.118Z,99452.31
2022-07-25T20:01:04.794Z,99449.84
2022-07-25T20:03:32.830Z,99449.56
2022-07-25T20:06:06.003Z,99455.63
2022-07-25T20:08:39.390Z,99456.19
2022-07-25T20:11:07.829Z,99460.03
2022-07-25T20:13:36.080Z,99455.91
2022-07-25T20:16:04.889Z,99462.25
2022-07-25T20:18:32.857Z,99456.75
2022-07-25T20:21:01.530Z,99455.13
2022-07-25T20:23:30.217Z,99459.50
2022-07-25T20:26:00.674Z,99458.97
2022-07-25T20:28:28.722Z,99460.63
2022-07-25T20:30:57.484Z,99461.16
2022-07-25T20:33:27.217Z,99460.59
2022-07-25T20:35:55.652Z,99459.50
2022-07-25T20:38:25.361Z,99452.91
2022-07-25T20:40:54.682Z,99457.34
2022-07-25T20:43:24.561Z,99460.34
2022-07-25T20:45:52.602Z,99461.72
2022-07-25T20:48:20.641Z,99458.69
2022-07-25T20:50:48.637Z,99462.25
2022-07-25T20:53:16.688Z,99456.75
2022-07-25T20:55:44.717Z,99461.44
2022-07-25T20:58:12.751Z,99463.38
2022-07-25T21:00:42.208Z,99470.50
2022-07-25T21:03:10.257Z,99461.72
2022-07-25T21:05:39.456Z,99465.03
2022-07-25T21:08:08.088Z,99462.81
2022-07-25T21:10:36.126Z,99467.19
2022-07-25T21:13:04.165Z,99467.75
2022-07-25T21:15:32.303Z,99460.88
2022-07-25T21:18:01.710Z,99463.34
2022-07-25T21:20:29.960Z,99462.25
2022-07-25T21:22:58.032Z,99469.69
2022-07-25T21:25:26.166Z,99467.75
2022-07-25T21:27:54.186Z,99468.84
2022-07-25T21:30:22.228Z,99467.75
2022-07-25T21:32:50.226Z,99472.69
2022-07-25T21:35:19.625Z,99474.91
2022-07-25T21:37:47.741Z,99472.16
2022-07-25T21:40:15.994Z,99468.88
2022-07-25T21:42:44.007Z,99468.31
2022-07-25T21:45:12.761Z,99466.13
2022-07-25T21:47:40.730Z,99468.88
2022-07-25T21:50:27.149Z,99468.31
2022-07-25T21:52:56.524Z,99472.69
2022-07-25T21:55:24.606Z,99473.25
2022-07-25T21:57:52.638Z,99473.81
2022-07-25T22:00:20.737Z,99472.16
2022-07-25T22:02:48.787Z,99471.63
2022-07-25T22:05:18.784Z,99473.28
2022-07-25T22:07:47.195Z,99465.03
2022-07-25T22:10:17.174Z,99475.97
2022-07-25T22:12:45.185Z,99474.28
2022-07-25T22:15:13.557Z,99466.56
2022-07-25T22:17:48.395Z,99474.25
2022-07-25T22:20:17.898Z,99474.22
2022-07-25T22:22:46.243Z,99475.28
2022-07-25T22:25:14.333Z,99468.69
2022-07-25T22:27:44.033Z,99470.56
2022-07-25T22:30:16.504Z,99462.09
2022-07-25T22:32:47.159Z,99459.88
2022-07-25T22:35:15.200Z,99457.66
2022-07-25T22:37:43.185Z,99451.88
2022-07-25T22:40:12.276Z,99455.13
2022-07-25T22:42:40.307Z,99451.00
2022-07-25T22:45:10.876Z,99460.56
2022-07-25T22:47:38.987Z,99454.25
2022-07-25T22:50:08.327Z,99454.78
2022-07-25T22:52:36.328Z,99457.81
2022-07-25T22:55:04.518Z,99455.88
2022-07-25T22:57:37.188Z,99449.28
2022-07-25T23:00:06.933Z,99449.25
2022-07-25T23:02:36.396Z,99437.72
2022-07-25T23:05:04.593Z,99434.97
2022-07-25T23:07:32.764Z,99431.13
2022-07-25T23:10:00.777Z,99434.72
2022-07-25T23:12:28.793Z,99424.00
2022-07-25T23:14:56.825Z,99423.44
2022-07-25T23:17:24.838Z,99429.47
2022-07-25T23:19:54.937Z,99418.78
2022-07-25T23:22:23.897Z,99420.44
2022-07-25T23:24:51.932Z,99419.94
2022-07-25T23:27:19.961Z,99420.22
2022-07-25T23:29:47.952Z,99416.66
2022-07-25T23:32:15.913Z,99407.66
2022-07-25T23:34:43.927Z,99412.63
2022-07-25T23:37:13.345Z,99410.47
2022-07-25T23:39:41.369Z,99411.31
2022-07-25T23:42:09.415Z,99408.53
2022-07-25T23:44:38.000Z,99409.31
2022-07-25T23:47:07.142Z,99403.53
2022-07-25T23:49:38.321Z,99404.34
2022-07-25T23:52:06.721Z,99406.53
2022-07-25T23:54:38.197Z,99402.66
2022-07-25T23:57:06.205Z,99400.47
2022-07-25T23:59:34.226Z,99392.78
